sensor_id;sensor_type;location;lat;lon;timestamp;pressure;altitude;pressure_sealevel;temperature;humidity
38939;BME280;24211;49.980;19.776;2022-09-01T00:00:12;99648.09;;;16.29;58.92
38939;BME280;24211;49.980;19.776;2022-09-01T00:03:01;99652.38;;;16.25;58.75
38939;BME280;24211;49.980;19.776;2022-09-01T00:05:28;99646.41;;;16.23;59.05
38939;BME280;24211;49.980;19.776;2022-09-01T00:07:59;99642.59;;;16.19;59.03
38939;BME280;24211;49.980;19.776;2022-09-01T00:10:26;99640.97;;;16.18;59.10
38939;BME280;24211;49.980;19.776;2022-09-01T00:12:53;99640.66;;;16.14;58.91
38939;BME280;24211;49.980;19.776;2022-09-01T00:15:21;99644.66;;;16.12;59.00
38939;BME280;24211;49.980;19.776;2022-09-01T00:17:48;99646.25;;;16.08;59.42
38939;BME280;24211;49.980;19.776;2022-09-01T00:20:15;99641.34;;;16.05;59.29
38939;BME280;24211;49.980;19.776;2022-09-01T00:22:47;99639.41;;;16.00;59.44
38939;BME280;24211;49.980;19.776;2022-09-01T00:25:14;99642.09;;;16.00;59.10
38939;BME280;24211;49.980;19.776;2022-09-01T00:27:47;99641.81;;;15.97;59.25
38939;BME280;24211;49.980;19.776;2022-09-01T00:30:16;99637.16;;;15.92;59.38
38939;BME280;24211;49.980;19.776;2022-09-01T00:32:43;99642.25;;;15.89;59.41
38939;BME280;24211;49.980;19.776;2022-09-01T00:35:16;99642.75;;;15.86;59.68
38939;BME280;24211;49.980;19.776;2022-09-01T00:37:44;99644.88;;;15.84;59.61
38939;BME280;24211;49.980;19.776;2022-09-01T00:40:15;99638.38;;;15.80;59.73
38939;BME280;24211;49.980;19.776;2022-09-01T00:42:43;99641.28;;;15.78;59.83
38939;BME280;24211;49.980;19.776;2022-09-01T00:45:11;99640.19;;;15.74;60.11
38939;BME280;24211;49.980;19.776;2022-09-01T00:47:39;99638.25;;;15.69;60.11
38939;BME280;24211;49.980;19.776;2022-09-01T00:50:08;99637.69;;;15.67;60.10
38939;BME280;24211;49.980;19.776;2022-09-01T00:52:51;99640.88;;;15.64;59.98
38939;BME280;24211;49.980;19.776;2022-09-01T00:55:26;99635.97;;;15.61;60.00
38939;BME280;24211;49.980;19.776;2022-09-01T00:57:57;99640.22;;;15.57;59.81
38939;BME280;24211;49.980;19.776;2022-09-01T01:00:30;99636.16;;;15.55;60.26
38939;BME280;24211;49.980;19.776;2022-09-01T01:02:58;99638.53;;;15.51;60.32
38939;BME280;24211;49.980;19.776;2022-09-01T01:05:33;99641.69;;;15.48;60.14
38939;BME280;24211;49.980;19.776;2022-09-01T01:08:04;99644.09;;;15.45;60.65
38939;BME280;24211;49.980;19.776;2022-09-01T01:10:38;99645.94;;;15.44;60.45
38939;BME280;24211;49.980;19.776;2022-09-01T01:13:13;99644.81;;;15.40;60.52
38939;BME280;24211;49.980;19.776;2022-09-01T01:15:43;99634.53;;;15.37;60.25
38939;BME280;24211;49.980;19.776;2022-09-01T01:18:15;99638.75;;;15.33;60.92
38939;BME280;24211;49.980;19.776;2022-09-01T01:21:06;99644.66;;;15.30;60.81
38939;BME280;24211;49.980;19.776;2022-09-01T01:24:28;99634.88;;;15.24;61.03
38939;BME280;24211;49.980;19.776;2022-09-01T01:26:57;99644.03;;;15.23;60.72
38939;BME280;24211;49.980;19.776;2022-09-01T01:29:35;99636.66;;;15.19;61.16
38939;BME280;24211;49.980;19.776;2022-09-01T01:32:06;99638.88;;;15.22;60.92
38939;BME280;24211;49.980;19.776;2022-09-01T01:34:40;99639.59;;;15.17;61.04
38939;BME280;24211;49.980;19.776;2022-09-01T01:37:12;99642.22;;;15.12;60.90
38939;BME280;24211;49.980;19.776;2022-09-01T01:39:43;99637.88;;;15.11;61.03
38939;BME280;24211;49.980;19.776;2022-09-01T01:42:11;99642.16;;;15.07;61.30
38939;BME280;24211;49.980;19.776;2022-09-01T01:44:38;99637.03;;;15.05;61.49
38939;BME280;24211;49.980;19.776;2022-09-01T01:47:11;99632.94;;;15.03;61.33
38939;BME280;24211;49.980;19.776;2022-09-01T01:49:40;99631.28;;;15.02;62.34
38939;BME280;24211;49.980;19.776;2022-09-01T01:52:12;99632.28;;;14.96;62.41
38939;BME280;24211;49.980;19.776;2022-09-01T01:54:45;99640.13;;;14.97;61.96
38939;BME280;24211;49.980;19.776;2022-09-01T01:57:14;99637.34;;;14.92;62.67
38939;BME280;24211;49.980;19.776;2022-09-01T01:59:44;99637.00;;;14.89;62.03
38939;BME280;24211;49.980;19.776;2022-09-01T02:02:12;99635.88;;;14.85;62.33
38939;BME280;24211;49.980;19.776;2022-09-01T02:04:39;99633.44;;;14.83;61.98
38939;BME280;24211;49.980;19.776;2022-09-01T02:07:12;99633.66;;;14.82;62.10
38939;BME280;24211;49.980;19.776;2022-09-01T02:09:41;99629.00;;;14.77;62.33
38939;BME280;24211;49.980;19.776;2022-09-01T02:12:14;99631.47;;;14.79;62.20
38939;BME280;24211;49.980;19.776;2022-09-01T02:14:46;99636.25;;;14.77;61.84
38939;BME280;24211;49.980;19.776;2022-09-01T02:17:15;99633.50;;;14.72;62.26
38939;BME280;24211;49.980;19.776;2022-09-01T02:19:43;99639.94;;;14.71;62.25
38939;BME280;24211;49.980;19.776;2022-09-01T02:22:13;99643.13;;;14.68;61.81
38939;BME280;24211;49.980;19.776;2022-09-01T02:24:40;99642.28;;;14.67;62.16
38939;BME280;24211;49.980;19.776;2022-09-01T02:27:15;99634.72;;;14.64;61.88
38939;BME280;24211;49.980;19.776;2022-09-01T02:29:52;99632.25;;;14.63;62.26
38939;BME280;24211;49.980;19.776;2022-09-01T02:32:22;99641.06;;;14.58;62.36
38939;BME280;24211;49.980;19.776;2022-09-01T02:34:50;99641.06;;;14.58;62.07
38939;BME280;24211;49.980;19.776;2022-09-01T02:37:20;99645.31;;;14.54;62.36
38939;BME280;24211;49.980;19.776;2022-09-01T02:39:52;99642.84;;;14.53;62.51
38939;BME280;24211;49.980;19.776;2022-09-01T02:42:19;99638.75;;;14.50;62.61
38939;BME280;24211;49.980;19.776;2022-09-01T02:44:55;99642.75;;;14.48;62.53
38939;BME280;24211;49.980;19.776;2022-09-01T02:47:23;99643.00;;;14.46;62.28
38939;BME280;24211;49.980;19.776;2022-09-01T02:49:53;99651.81;;;14.42;62.69
38939;BME280;24211;49.980;19.776;2022-09-01T02:52:21;99653.41;;;14.43;62.63
38939;BME280;24211;49.980;19.776;2022-09-01T02:54:48;99640.47;;;14.39;62.58
38939;BME280;24211;49.980;19.776;2022-09-01T02:57:16;99642.56;;;14.37;62.70
38939;BME280;24211;49.980;19.776;2022-09-01T02:59:44;99646.31;;;14.36;62.17
38939;BME280;24211;49.980;19.776;2022-09-01T03:02:13;99648.66;;;14.33;62.90
38939;BME280;24211;49.980;19.776;2022-09-01T03:04:41;99641.91;;;14.30;62.92
38939;BME280;24211;49.980;19.776;2022-09-01T03:07:09;99645.84;;;14.28;62.68
38939;BME280;24211;49.980;19.776;2022-09-01T03:09:39;99641.78;;;14.25;63.14
38939;BME280;24211;49.980;19.776;2022-09-01T03:12:09;99638.03;;;14.26;62.75
38939;BME280;24211;49.980;19.776;2022-09-01T03:14:37;99637.69;;;14.23;62.97
38939;BME280;24211;49.980;19.776;2022-09-01T03:17:04;99633.13;;;14.23;62.96
38939;BME280;24211;49.980;19.776;2022-09-01T03:19:31;99636.31;;;14.20;62.68
38939;BME280;24211;49.980;19.776;2022-09-01T03:22:11;99629.53;;;14.18;62.85
38939;BME280;24211;49.980;19.776;2022-09-01T03:24:38;99628.13;;;14.15;62.98
38939;BME280;24211;49.980;19.776;2022-09-01T03:27:05;99634.03;;;14.12;63.06
38939;BME280;24211;49.980;19.776;2022-09-01T03:29:33;99633.41;;;14.10;63.17
38939;BME280;24211;49.980;19.776;2022-09-01T03:32:03;99639.28;;;14.07;63.16
38939;BME280;24211;49.980;19.776;2022-09-01T03:34:31;99634.75;;;14.08;63.04
38939;BME280;24211;49.980;19.776;2022-09-01T03:37:03;99642.19;;;14.06;63.08
38939;BME280;24211;49.980;19.776;2022-09-01T03:39:33;99633.25;;;14.00;63.31
38939;BME280;24211;49.980;19.776;2022-09-01T03:42:01;99636.16;;;13.99;63.67
38939;BME280;24211;49.980;19.776;2022-09-01T03:44:29;99633.25;;;14.00;63.44
38939;BME280;24211;49.980;19.776;2022-09-01T03:46:56;99635.81;;;13.95;63.42
38939;BME280;24211;49.980;19.776;2022-09-01T03:49:24;99640.84;;;13.92;63.56
38939;BME280;24211;49.980;19.776;2022-09-01T03:51:56;99643.78;;;13.90;63.96
38939;BME280;24211;49.980;19.776;2022-09-01T03:54:25;99645.28;;;13.86;64.08
38939;BME280;24211;49.980;19.776;2022-09-01T03:56:53;99638.31;;;13.85;64.04
38939;BME280;24211;49.980;19.776;2022-09-01T03:59:21;99642.59;;;13.86;64.23
38939;BME280;24211;49.980;19.776;2022-09-01T04:01:50;99633.16;;;13.84;64.54
38939;BME280;24211;49.980;19.776;2022-09-01T04:04:17;99646.25;;;13.80;64.86
38939;BME280;24211;49.980;19.776;2022-09-01T04:06:45;99642.50;;;13.81;65.04
38939;BME280;24211;49.980;19.776;2022-09-01T04:09:14;99655.63;;;13.77;65.11
38939;BME280;24211;49.980;19.776;2022-09-01T04:11:44;99653.16;;;13.76;64.72
38939;BME280;24211;49.980;19.776;2022-09-01T04:14:15;99652.34;;;13.75;64.42
38939;BME280;24211;49.980;19.776;2022-09-01T04:16:44;99647.91;;;13.69;64.98
38939;BME280;24211;49.980;19.776;2022-09-01T04:19:35;99651.16;;;13.71;64.71
38939;BME280;24211;49.980;19.776;2022-09-01T04:22:05;99652.00;;;13.72;64.47
38939;BME280;24211;49.980;19.776;2022-09-01T04:24:41;99644.97;;;13.71;64.55
38939;BME280;24211;49.980;19.776;2022-09-01T04:27:14;99652.00;;;13.72;64.57
38939;BME280;24211;49.980;19.776;2022-09-01T04:29:42;99652.72;;;13.67;64.42
38939;BME280;24211;49.980;19.776;2022-09-01T04:32:12;99655.03;;;13.64;65.55
38939;BME280;24211;49.980;19.776;2022-09-01T04:34:45;99654.25;;;13.63;64.79
38939;BME280;24211;49.980;19.776;2022-09-01T04:37:19;99658.22;;;13.61;64.51
38939;BME280;24211;49.980;19.776;2022-09-01T04:39:54;99662.97;;;13.59;65.06
38939;BME280;24211;49.980;19.776;2022-09-01T04:42:27;99661.38;;;13.58;64.91
38939;BME280;24211;49.980;19.776;2022-09-01T04:45:00;99663.81;;;13.59;64.53
38939;BME280;24211;49.980;19.776;2022-09-01T04:47:38;99657.59;;;13.59;64.59
38939;BME280;24211;49.980;19.776;2022-09-01T04:50:11;99658.91;;;13.56;64.91
38939;BME280;24211;49.980;19.776;2022-09-01T04:53:04;99655.41;;;13.56;64.92
38939;BME280;24211;49.980;19.776;2022-09-01T04:55:45;99663.47;;;13.56;64.86
38939;BME280;24211;49.980;19.776;2022-09-01T04:58:18;99659.72;;;13.57;65.01
38939;BME280;24211;49.980;19.776;2022-09-01T05:00:48;99653.53;;;13.56;64.47
38939;BME280;24211;49.980;19.776;2022-09-01T05:03:19;99660.78;;;13.56;64.94
38939;BME280;24211;49.980;19.776;2022-09-01T05:06:04;99662.97;;;13.59;64.61
38939;BME280;24211;49.980;19.776;2022-09-01T05:08:33;99661.94;;;13.60;64.85
38939;BME280;24211;49.980;19.776;2022-09-01T05:11:04;99657.97;;;13.62;64.81
38939;BME280;24211;49.980;19.776;2022-09-01T05:13:57;99657.16;;;13.62;65.02
38939;BME280;24211;49.980;19.776;2022-09-01T05:16:25;99667.69;;;13.63;65.02
38939;BME280;24211;49.980;19.776;2022-09-01T05:18:56;99663.34;;;13.62;65.62
38939;BME280;24211;49.980;19.776;2022-09-01T05:21:29;99676.53;;;13.64;65.70
38939;BME280;24211;49.980;19.776;2022-09-01T05:23:59;99671.50;;;13.67;65.19
38939;BME280;24211;49.980;19.776;2022-09-01T05:26:30;99663.19;;;13.69;65.35
38939;BME280;24211;49.980;19.776;2022-09-01T05:29:04;99672.66;;;13.71;65.37
38939;BME280;24211;49.980;19.776;2022-09-01T05:31:38;99662.75;;;13.72;65.15
38939;BME280;24211;49.980;19.776;2022-09-01T05:34:08;99661.69;;;13.73;64.92
38939;BME280;24211;49.980;19.776;2022-09-01T05:36:41;99664.50;;;13.78;65.10
38939;BME280;24211;49.980;19.776;2022-09-01T05:39:09;99662.50;;;13.85;64.91
38939;BME280;24211;49.980;19.776;2022-09-01T05:41:42;99666.44;;;13.94;64.86
38939;BME280;24211;49.980;19.776;2022-09-01T05:44:11;99654.59;;;14.07;64.43
38939;BME280;24211;49.980;19.776;2022-09-01T05:46:41;99662.13;;;14.21;64.23
38939;BME280;24211;49.980;19.776;2022-09-01T05:49:12;99659.53;;;14.38;64.36
38939;BME280;24211;49.980;19.776;2022-09-01T05:51:49;99659.31;;;14.56;65.31
38939;BME280;24211;49.980;19.776;2022-09-01T05:54:24;99660.72;;;14.75;65.02
38939;BME280;24211;49.980;19.776;2022-09-01T05:56:55;99662.94;;;14.95;63.80
38939;BME280;24211;49.980;19.776;2022-09-01T05:59:47;99658.94;;;15.14;63.71
38939;BME280;24211;49.980;19.776;2022-09-01T06:02:23;99665.69;;;15.33;67.22
38939;BME280;24211;49.980;19.776;2022-09-01T06:04:55;99669.47;;;15.49;63.62
38939;BME280;24211;49.980;19.776;2022-09-01T06:07:28;99670.25;;;15.66;63.80
38939;BME280;24211;49.980;19.776;2022-09-01T06:09:59;99671.91;;;15.89;65.25
38939;BME280;24211;49.980;19.776;2022-09-01T06:12:27;99670.06;;;16.16;67.79
38939;BME280;24211;49.980;19.776;2022-09-01T06:14:56;99668.22;;;16.43;67.60
38939;BME280;24211;49.980;19.776;2022-09-01T06:17:26;99671.22;;;16.73;67.09
38939;BME280;24211;49.980;19.776;2022-09-01T06:19:59;99670.53;;;17.15;66.73
38939;BME280;24211;49.980;19.776;2022-09-01T06:22:27;99670.16;;;17.43;65.22
38939;BME280;24211;49.980;19.776;2022-09-01T06:24:57;99666.06;;;17.77;64.35
38939;BME280;24211;49.980;19.776;2022-09-01T06:27:33;99673.78;;;18.00;64.05
38939;BME280;24211;49.980;19.776;2022-09-01T06:30:00;99664.38;;;18.23;62.47
38939;BME280;24211;49.980;19.776;2022-09-01T06:32:34;99655.53;;;18.53;61.91
38939;BME280;24211;49.980;19.776;2022-09-01T06:35:05;99666.69;;;18.71;61.30
38939;BME280;24211;49.980;19.776;2022-09-01T06:37:38;99658.31;;;19.03;60.04
38939;BME280;24211;49.980;19.776;2022-09-01T06:40:12;99652.88;;;19.23;59.60
38939;BME280;24211;49.980;19.776;2022-09-01T06:42:52;99659.91;;;19.44;59.08
38939;BME280;24211;49.980;19.776;2022-09-01T06:45:23;99662.03;;;19.73;57.67
38939;BME280;24211;49.980;19.776;2022-09-01T06:47:51;99665.72;;;20.02;56.49
38939;BME280;24211;49.980;19.776;2022-09-01T06:50:27;99672.16;;;20.26;55.20
38939;BME280;24211;49.980;19.776;2022-09-01T06:53:16;99667.75;;;20.35;55.37
38939;BME280;24211;49.980;19.776;2022-09-01T06:56:02;99670.88;;;20.57;55.68
38939;BME280;24211;49.980;19.776;2022-09-01T06:58:30;99666.28;;;20.92;54.05
38939;BME280;24211;49.980;19.776;2022-09-01T07:00:58;99661.03;;;21.10;52.88
38939;BME280;24211;49.980;19.776;2022-09-01T07:03:26;99659.56;;;21.23;53.22
38939;BME280;24211;49.980;19.776;2022-09-01T07:06:14;99660.63;;;21.50;51.94
38939;BME280;24211;49.980;19.776;2022-09-01T07:09:18;99662.09;;;21.67;52.20
38939;BME280;24211;49.980;19.776;2022-09-01T07:12:06;99660.53;;;21.84;51.10
38939;BME280;24211;49.980;19.776;2022-09-01T07:14:51;99662.47;;;22.07;50.24
38939;BME280;24211;49.980;19.776;2022-09-01T07:17:41;99662.78;;;22.25;49.97
38939;BME280;24211;49.980;19.776;2022-09-01T07:20:09;99667.31;;;22.53;48.78
38939;BME280;24211;49.980;19.776;2022-09-01T07:22:56;99665.03;;;22.78;47.70
38939;BME280;24211;49.980;19.776;2022-09-01T07:25:46;99658.28;;;23.08;47.32
38939;BME280;24211;49.980;19.776;2022-09-01T07:28:39;99660.94;;;23.13;47.67
38939;BME280;24211;49.980;19.776;2022-09-01T07:31:07;99655.50;;;23.46;44.86
38939;BME280;24211;49.980;19.776;2022-09-01T07:34:01;99651.16;;;23.72;45.66
38939;BME280;24211;49.980;19.776;2022-09-01T07:36:51;99654.59;;;23.91;45.37
38939;BME280;24211;49.980;19.776;2022-09-01T07:39:39;99650.38;;;23.85;44.72
38939;BME280;24211;49.980;19.776;2022-09-01T07:42:54;99655.19;;;24.01;43.50
38939;BME280;24211;49.980;19.776;2022-09-01T07:45:55;99660.28;;;24.22;43.26
38939;BME280;24211;49.980;19.776;2022-09-01T07:48:28;99657.44;;;24.13;42.89
38939;BME280;24211;49.980;19.776;2022-09-01T07:51:19;99651.59;;;24.20;42.54
38939;BME280;24211;49.980;19.776;2022-09-01T07:54:06;99651.94;;;24.40;41.23
38939;BME280;24211;49.980;19.776;2022-09-01T07:56:33;99650.63;;;24.74;41.39
38939;BME280;24211;49.980;19.776;2022-09-01T07:59:08;99646.94;;;24.92;41.39
38939;BME280;24211;49.980;19.776;2022-09-01T08:01:53;99644.72;;;24.94;41.58
38939;BME280;24211;49.980;19.776;2022-09-01T08:04:20;99647.56;;;24.89;42.02
38939;BME280;24211;49.980;19.776;2022-09-01T08:06:50;99648.06;;;24.91;41.47
38939;BME280;24211;49.980;19.776;2022-09-01T08:11:59;99642.06;;;25.33;39.21
38939;BME280;24211;49.980;19.776;2022-09-01T08:14:32;99647.56;;;25.11;39.37
38939;BME280;24211;49.980;19.776;2022-09-01T08:17:01;99645.94;;;25.10;38.35
38939;BME280;24211;49.980;19.776;2022-09-01T08:19:49;99645.47;;;25.39;38.50
38939;BME280;24211;49.980;19.776;2022-09-01T08:22:27;99648.44;;;25.81;37.03
38939;BME280;24211;49.980;19.776;2022-09-01T08:25:05;99644.72;;;26.17;36.61
38939;BME280;24211;49.980;19.776;2022-09-01T08:27:35;99642.13;;;26.20;37.43
38939;BME280;24211;49.980;19.776;2022-09-01T08:30:09;99645.00;;;25.67;37.99
38939;BME280;24211;49.980;19.776;2022-09-01T08:32:38;99642.31;;;25.45;38.08
38939;BME280;24211;49.980;19.776;2022-09-01T08:35:10;99642.69;;;25.61;37.96
38939;BME280;24211;49.980;19.776;2022-09-01T08:37:39;99640.44;;;25.54;38.34
38939;BME280;24211;49.980;19.776;2022-09-01T08:40:09;99648.09;;;25.74;38.43
38939;BME280;24211;49.980;19.776;2022-09-01T08:43:42;99647.00;;;25.92;37.19
38939;BME280;24211;49.980;19.776;2022-09-01T08:46:38;99642.38;;;26.02;37.36
38939;BME280;24211;49.980;19.776;2022-09-01T08:49:13;99643.94;;;25.85;36.74
38939;BME280;24211;49.980;19.776;2022-09-01T08:52:33;99635.97;;;26.15;37.74
38939;BME280;24211;49.980;19.776;2022-09-01T08:55:33;99644.41;;;26.44;37.76
38939;BME280;24211;49.980;19.776;2022-09-01T08:58:01;99638.09;;;26.35;37.42
38939;BME280;24211;49.980;19.776;2022-09-01T09:01:03;99638.41;;;26.16;37.27
38939;BME280;24211;49.980;19.776;2022-09-01T09:04:25;99641.84;;;26.39;37.43
38939;BME280;24211;49.980;19.776;2022-09-01T09:07:04;99640.28;;;25.59;36.85
38939;BME280;24211;49.980;19.776;2022-09-01T09:09:45;99636.06;;;25.53;38.44
38939;BME280;24211;49.980;19.776;2022-09-01T09:12:44;99637.88;;;25.58;36.96
38939;BME280;24211;49.980;19.776;2022-09-01T09:15:26;99631.09;;;25.94;37.55
38939;BME280;24211;49.980;19.776;2022-09-01T09:18:13;99626.00;;;26.19;37.16
38939;BME280;24211;49.980;19.776;2022-09-01T09:21:36;99629.25;;;26.46;36.86
38939;BME280;24211;49.980;19.776;2022-09-01T09:24:32;99625.41;;;26.90;35.35
38939;BME280;24211;49.980;19.776;2022-09-01T09:27:26;99612.00;;;27.61;32.27
38939;BME280;24211;49.980;19.776;2022-09-01T09:29:58;99621.81;;;28.08;32.46
38939;BME280;24211;49.980;19.776;2022-09-01T09:32:59;99614.69;;;28.07;32.27
38939;BME280;24211;49.980;19.776;2022-09-01T09:35:50;99614.31;;;28.17;32.71
38939;BME280;24211;49.980;19.776;2022-09-01T09:38:24;99611.94;;;28.07;32.78
38939;BME280;24211;49.980;19.776;2022-09-01T09:41:13;99616.63;;;27.22;33.30
38939;BME280;24211;49.980;19.776;2022-09-01T09:46:39;99613.00;;;26.93;34.84
38939;BME280;24211;49.980;19.776;2022-09-01T09:49:26;99617.06;;;26.78;33.86
38939;BME280;24211;49.980;19.776;2022-09-01T09:54:33;99622.16;;;26.71;36.08
38939;BME280;24211;49.980;19.776;2022-09-01T09:57:09;99621.38;;;26.53;35.28
38939;BME280;24211;49.980;19.776;2022-09-01T10:03:00;99606.91;;;25.96;36.36
38939;BME280;24211;49.980;19.776;2022-09-01T10:05:47;99615.94;;;25.27;36.99
38939;BME280;24211;49.980;19.776;2022-09-01T10:10:55;99608.72;;;25.31;37.00
38939;BME280;24211;49.980;19.776;2022-09-01T10:13:27;99611.84;;;25.38;35.73
38939;BME280;24211;49.980;19.776;2022-09-01T10:16:03;99605.38;;;25.34;36.69
38939;BME280;24211;49.980;19.776;2022-09-01T10:18:43;99603.38;;;25.26;37.46
38939;BME280;24211;49.980;19.776;2022-09-01T10:21:17;99602.25;;;25.18;38.02
38939;BME280;24211;49.980;19.776;2022-09-01T10:23:48;99609.03;;;24.99;38.37
38939;BME280;24211;49.980;19.776;2022-09-01T10:26:26;99613.28;;;24.47;37.59
38939;BME280;24211;49.980;19.776;2022-09-01T10:29:13;99611.94;;;23.95;38.41
38939;BME280;24211;49.980;19.776;2022-09-01T10:31:42;99614.38;;;24.10;37.85
38939;BME280;24211;49.980;19.776;2022-09-01T10:34:15;99611.50;;;23.33;37.80
38939;BME280;24211;49.980;19.776;2022-09-01T10:36:47;99613.38;;;23.65;37.66
38939;BME280;24211;49.980;19.776;2022-09-01T10:39:23;99606.66;;;23.44;37.58
38939;BME280;24211;49.980;19.776;2022-09-01T10:41:58;99608.44;;;23.35;38.18
38939;BME280;24211;49.980;19.776;2022-09-01T10:44:58;99604.84;;;23.39;38.03
38939;BME280;24211;49.980;19.776;2022-09-01T10:47:32;99604.66;;;23.50;37.67
38939;BME280;24211;49.980;19.776;2022-09-01T10:52:55;99590.63;;;23.10;38.30
38939;BME280;24211;49.980;19.776;2022-09-01T10:55:25;99599.53;;;23.75;37.23
38939;BME280;24211;49.980;19.776;2022-09-01T10:58:34;99603.41;;;24.24;36.44
38939;BME280;24211;49.980;19.776;2022-09-01T11:07:02;99603.06;;;23.49;36.63
38939;BME280;24211;49.980;19.776;2022-09-01T11:09:42;99600.25;;;23.21;36.91
38939;BME280;24211;49.980;19.776;2022-09-01T11:12:23;99599.78;;;23.47;36.89
38939;BME280;24211;49.980;19.776;2022-09-01T11:15:04;99595.19;;;23.61;37.12
38939;BME280;24211;49.980;19.776;2022-09-01T11:17:38;99585.69;;;23.58;36.45
38939;BME280;24211;49.980;19.776;2022-09-01T11:20:26;99592.34;;;23.38;36.62
38939;BME280;24211;49.980;19.776;2022-09-01T11:23:11;99600.97;;;23.27;36.59
38939;BME280;24211;49.980;19.776;2022-09-01T11:29:01;99583.44;;;23.87;33.64
38939;BME280;24211;49.980;19.776;2022-09-01T11:31:39;99587.88;;;24.46;35.18
38939;BME280;24211;49.980;19.776;2022-09-01T11:34:15;99582.41;;;24.68;35.26
38939;BME280;24211;49.980;19.776;2022-09-01T11:36:50;99587.50;;;24.39;33.96
38939;BME280;24211;49.980;19.776;2022-09-01T11:39:23;99581.72;;;24.41;35.71
38939;BME280;24211;49.980;19.776;2022-09-01T11:47:39;99576.84;;;24.51;33.54
38939;BME280;24211;49.980;19.776;2022-09-01T11:50:19;99572.97;;;24.52;33.81
38939;BME280;24211;49.980;19.776;2022-09-01T11:53:03;99574.31;;;24.77;34.06
38939;BME280;24211;49.980;19.776;2022-09-01T11:55:41;99573.06;;;25.14;32.47
38939;BME280;24211;49.980;19.776;2022-09-01T11:58:31;99576.84;;;25.26;32.47
38939;BME280;24211;49.980;19.776;2022-09-01T12:01:33;99570.84;;;25.47;32.41
38939;BME280;24211;49.980;19.776;2022-09-01T12:04:24;99574.84;;;25.88;31.83
38939;BME280;24211;49.980;19.776;2022-09-01T12:07:10;99585.59;;;24.84;31.97
38939;BME280;24211;49.980;19.776;2022-09-01T12:09:45;99580.31;;;24.65;33.80
38939;BME280;24211;49.980;19.776;2022-09-01T12:12:36;99582.13;;;24.92;32.32
38939;BME280;24211;49.980;19.776;2022-09-01T12:15:24;99579.09;;;24.94;33.67
38939;BME280;24211;49.980;19.776;2022-09-01T12:18:20;99566.28;;;25.03;33.48
38939;BME280;24211;49.980;19.776;2022-09-01T12:20:58;99574.50;;;24.81;33.84
38939;BME280;24211;49.980;19.776;2022-09-01T12:23:33;99571.03;;;24.89;33.94
38939;BME280;24211;49.980;19.776;2022-09-01T12:26:12;99565.09;;;24.95;33.71
38939;BME280;24211;49.980;19.776;2022-09-01T12:28:41;99564.28;;;24.95;33.92
38939;BME280;24211;49.980;19.776;2022-09-01T12:31:17;99561.06;;;24.93;33.84
38939;BME280;24211;49.980;19.776;2022-09-01T12:33:47;99565.22;;;24.90;33.50
38939;BME280;24211;49.980;19.776;2022-09-01T12:36:34;99562.25;;;25.09;33.98
38939;BME280;24211;49.980;19.776;2022-09-01T12:39:20;99560.81;;;24.58;34.59
38939;BME280;24211;49.980;19.776;2022-09-01T12:42:11;99558.97;;;23.69;32.75
38939;BME280;24211;49.980;19.776;2022-09-01T12:49:57;99568.25;;;23.95;33.59
38939;BME280;24211;49.980;19.776;2022-09-01T12:52:27;99566.72;;;24.16;33.79
38939;BME280;24211;49.980;19.776;2022-09-01T12:55:15;99560.41;;;24.29;33.85
38939;BME280;24211;49.980;19.776;2022-09-01T12:58:07;99559.56;;;23.93;34.67
38939;BME280;24211;49.980;19.776;2022-09-01T13:00:57;99557.38;;;23.68;34.16
38939;BME280;24211;49.980;19.776;2022-09-01T13:03:26;99560.50;;;23.48;34.71
38939;BME280;24211;49.980;19.776;2022-09-01T13:06:02;99562.72;;;22.86;33.39
38939;BME280;24211;49.980;19.776;2022-09-01T13:08:33;99571.72;;;22.68;34.04
38939;BME280;24211;49.980;19.776;2022-09-01T13:11:05;99573.63;;;22.86;33.30
38939;BME280;24211;49.980;19.776;2022-09-01T13:13:33;99567.81;;;23.20;34.34
38939;BME280;24211;49.980;19.776;2022-09-01T13:16:25;99566.06;;;23.42;33.84
38939;BME280;24211;49.980;19.776;2022-09-01T13:18:53;99566.38;;;23.55;34.49
38939;BME280;24211;49.980;19.776;2022-09-01T13:21:40;99561.81;;;23.64;34.38
38939;BME280;24211;49.980;19.776;2022-09-01T13:24:12;99561.03;;;23.63;34.70
38939;BME280;24211;49.980;19.776;2022-09-01T13:26:40;99561.31;;;23.62;35.24
38939;BME280;24211;49.980;19.776;2022-09-01T13:29:30;99559.22;;;23.59;35.06
38939;BME280;24211;49.980;19.776;2022-09-01T13:31:57;99559.41;;;23.62;35.16
38939;BME280;24211;49.980;19.776;2022-09-01T13:34:45;99558.72;;;24.06;34.44
38939;BME280;24211;49.980;19.776;2022-09-01T13:37:13;99558.72;;;24.06;34.54
38939;BME280;24211;49.980;19.776;2022-09-01T13:39:40;99557.72;;;24.02;34.74
38939;BME280;24211;49.980;19.776;2022-09-01T13:42:08;99558.66;;;24.33;34.19
38939;BME280;24211;49.980;19.776;2022-09-01T13:44:36;99552.94;;;24.21;33.45
38939;BME280;24211;49.980;19.776;2022-09-01T13:47:03;99554.25;;;23.61;32.36
38939;BME280;24211;49.980;19.776;2022-09-01T13:49:51;99557.91;;;23.10;33.19
38939;BME280;24211;49.980;19.776;2022-09-01T13:52:53;99565.34;;;22.91;32.46
38939;BME280;24211;49.980;19.776;2022-09-01T13:55:34;99553.53;;;23.69;34.02
38939;BME280;24211;49.980;19.776;2022-09-01T13:58:01;99558.81;;;24.50;32.90
38939;BME280;24211;49.980;19.776;2022-09-01T14:00:41;99558.72;;;24.78;32.44
38939;BME280;24211;49.980;19.776;2022-09-01T14:03:15;99557.00;;;24.46;32.19
38939;BME280;24211;49.980;19.776;2022-09-01T14:05:46;99569.81;;;24.23;31.91
38939;BME280;24211;49.980;19.776;2022-09-01T14:08:19;99567.13;;;24.45;31.57
38939;BME280;24211;49.980;19.776;2022-09-01T14:10:50;99567.22;;;24.18;32.52
38939;BME280;24211;49.980;19.776;2022-09-01T14:13:23;99563.94;;;24.88;32.07